Time;durP1;ratioP1;P1;durP2;ratioP2;P2;SDS_P1;SDS_P2;PMS_P1;PMS_P2;Temp;Humidity;BMP_temperature;BMP_pressure;BME280_temperature;BME280_humidity;BME280_pressure;Samples;Min_cycle;Max_cycle;Signal;HPM_P1;HPM_P2
2023/03/28 00:00:03;;;;;;;8.87;4.60;;;2.60;99.90;;;;;;5044916;28;20223;-66
2023/03/28 00:02:59;;;;;;;10.37;4.70;;;2.50;99.90;;;;;;5049633;28;20345;-65
2023/03/28 00:05:49;;;;;;;10.17;4.77;;;2.60;99.90;;;;;;5050795;28;20357;-63
2023/03/28 00:08:39;;;;;;;11.27;5.90;;;2.60;99.90;;;;;;5063265;28;20933;-65
2023/03/28 00:11:29;;;;;;;10.57;5.17;;;2.60;99.90;;;;;;5047902;28;20572;-64
2023/03/28 00:14:18;;;;;;;13.27;6.57;;;2.50;99.90;;;;;;5041226;28;20932;-64
2023/03/28 00:17:07;;;;;;;13.70;6.23;;;2.50;99.90;;;;;;5056684;28;20227;-63
2023/03/28 00:19:56;;;;;;;9.63;5.17;;;2.50;99.90;;;;;;5060764;28;20221;-64
2023/03/28 00:22:45;;;;;;;12.83;5.47;;;2.60;99.90;;;;;;5058662;28;20309;-65
2023/03/28 00:25:34;;;;;;;10.17;4.97;;;2.50;99.90;;;;;;5044301;28;20792;-64
2023/03/28 00:28:24;;;;;;;10.57;5.50;;;2.40;99.90;;;;;;5035797;28;20732;-65
2023/03/28 00:31:13;;;;;;;10.77;6.00;;;2.40;99.90;;;;;;5037900;28;20503;-65
2023/03/28 00:34:06;;;;;;;12.23;5.70;;;2.40;99.90;;;;;;5037699;28;20243;-64
2023/03/28 00:36:55;;;;;;;9.27;5.13;;;2.40;99.90;;;;;;5048058;28;20243;-65
2023/03/28 00:39:48;;;;;;;9.13;4.93;;;2.40;99.90;;;;;;5056487;28;20240;-64
2023/03/28 00:42:41;;;;;;;9.87;5.00;;;2.50;99.90;;;;;;5052263;28;20220;-63
2023/03/28 00:45:33;;;;;;;7.70;4.90;;;2.30;99.90;;;;;;5042978;28;20243;-65
2023/03/28 00:48:21;;;;;;;13.53;5.37;;;2.50;99.90;;;;;;5036874;28;20225;-65
2023/03/28 00:51:13;;;;;;;9.97;5.60;;;2.50;99.90;;;;;;5045851;28;20223;-65
2023/03/28 00:54:05;;;;;;;8.77;5.20;;;2.40;99.90;;;;;;5046806;28;20247;-64
2023/03/28 00:56:59;;;;;;;8.93;5.27;;;2.50;99.90;;;;;;5040687;28;20235;-64
2023/03/28 00:59:48;;;;;;;10.13;5.07;;;2.40;99.90;;;;;;5039852;28;20302;-64
2023/03/28 01:02:40;;;;;;;10.43;5.40;;;2.40;99.90;;;;;;5069417;28;20230;-65
2023/03/28 01:05:33;;;;;;;10.97;5.43;;;2.40;99.90;;;;;;5039299;28;20227;-64
2023/03/28 01:08:25;;;;;;;11.07;5.03;;;2.40;99.90;;;;;;5059065;28;20227;-65
2023/03/28 01:11:15;;;;;;;11.87;6.03;;;2.40;99.90;;;;;;5044818;28;20221;-65
2023/03/28 01:14:06;;;;;;;12.27;5.80;;;2.20;99.90;;;;;;5042468;28;20315;-64
2023/03/28 01:16:56;;;;;;;16.27;5.60;;;2.10;99.90;;;;;;5058815;28;20218;-66
2023/03/28 01:19:59;;;;;;;12.47;6.13;;;1.90;99.90;;;;;;5040092;28;20226;-65
2023/03/28 01:23:22;;;;;;;11.50;5.93;;;2.10;99.90;;;;;;5055592;28;20309;-64
2023/03/28 01:26:38;;;;;;;13.57;5.97;;;2.10;99.90;;;;;;5059713;28;20230;-64
2023/03/28 01:30:11;;;;;;;11.10;5.70;;;2.10;99.90;;;;;;5067721;28;20699;-66
2023/03/28 01:33:32;;;;;;;13.80;6.07;;;2.20;99.90;;;;;;5053744;28;20307;-64
2023/03/28 01:36:55;;;;;;;11.47;6.03;;;2.10;99.90;;;;;;5056497;28;20239;-63
2023/03/28 01:40:10;;;;;;;13.00;6.63;;;1.90;99.90;;;;;;5072076;28;20269;-65
2023/03/28 01:43:17;;;;;;;14.93;6.67;;;2.20;99.90;;;;;;5028133;28;20720;-63
2023/03/28 01:46:14;;;;;;;13.37;6.77;;;2.20;99.90;;;;;;5054057;28;20273;-61
2023/03/28 01:49:10;;;;;;;15.50;7.10;;;2.10;99.90;;;;;;5055812;28;20249;-61
2023/03/28 01:52:07;;;;;;;14.37;6.90;;;2.20;99.90;;;;;;5043601;28;20290;-66
2023/03/28 01:55:05;;;;;;;13.30;7.60;;;2.30;99.90;;;;;;5044821;28;20720;-61
2023/03/28 01:58:05;;;;;;;15.80;7.50;;;2.30;99.90;;;;;;5040608;28;20223;-63
2023/03/28 02:01:16;;;;;;;13.80;7.40;;;2.20;99.90;;;;;;5036767;28;20223;-63
2023/03/28 02:04:16;;;;;;;15.23;7.70;;;2.00;99.90;;;;;;5080157;28;20237;-64
2023/03/28 02:07:23;;;;;;;20.97;8.27;;;2.00;99.90;;;;;;5041086;28;20235;-64
2023/03/28 02:10:49;;;;;;;16.87;7.90;;;1.80;99.90;;;;;;5051656;28;20221;-65
2023/03/28 02:14:05;;;;;;;16.90;8.13;;;1.80;99.90;;;;;;5036463;28;20261;-64
2023/03/28 02:17:14;;;;;;;19.77;8.43;;;1.90;99.90;;;;;;5055123;28;20224;-61
2023/03/28 02:20:10;;;;;;;15.77;8.10;;;1.90;99.90;;;;;;5056722;28;20214;-63
2023/03/28 02:23:21;;;;;;;18.37;8.53;;;1.80;99.90;;;;;;5061229;28;20220;-64
2023/03/28 02:26:30;;;;;;;22.53;9.60;;;1.70;99.90;;;;;;5056021;28;20217;-64
2023/03/28 02:29:37;;;;;;;17.27;8.73;;;1.70;99.90;;;;;;5070177;28;20239;-65
2023/03/28 02:32:42;;;;;;;19.50;8.67;;;1.90;99.90;;;;;;5040250;28;20768;-66
2023/03/28 02:35:43;;;;;;;18.30;9.43;;;2.00;99.90;;;;;;5052021;28;20227;-63
2023/03/28 02:38:40;;;;;;;19.27;9.60;;;2.00;99.90;;;;;;5038097;28;20585;-64
2023/03/28 02:41:36;;;;;;;21.77;10.87;;;1.80;99.90;;;;;;5055517;28;20790;-65
2023/03/28 02:44:52;;;;;;;21.73;10.37;;;1.70;99.90;;;;;;5060654;28;20244;-61
2023/03/28 02:47:55;;;;;;;22.13;9.97;;;1.70;99.90;;;;;;5044327;28;20237;-63
2023/03/28 02:50:49;;;;;;;17.20;9.23;;;1.70;99.90;;;;;;5057081;28;20226;-61
2023/03/28 02:53:45;;;;;;;20.13;10.27;;;1.70;99.90;;;;;;5051512;28;20221;-61
2023/03/28 02:56:42;;;;;;;19.03;9.23;;;1.60;99.90;;;;;;5060534;28;20362;-62
2023/03/28 02:59:42;;;;;;;21.33;11.27;;;1.60;99.90;;;;;;5051733;28;20235;-62
2023/03/28 03:02:32;;;;;;;22.37;10.80;;;1.60;99.90;;;;;;5036835;28;20229;-62
2023/03/28 03:05:22;;;;;;;20.20;10.03;;;1.60;99.90;;;;;;5058882;28;20269;-64
2023/03/28 03:08:11;;;;;;;21.63;10.33;;;1.60;99.90;;;;;;5034616;28;20276;-63
2023/03/28 03:11:00;;;;;;;20.47;10.53;;;1.60;99.90;;;;;;5018109;28;20251;-68
2023/03/28 03:13:49;;;;;;;19.17;9.73;;;1.50;99.90;;;;;;5038250;28;20358;-68
2023/03/28 03:16:41;;;;;;;17.43;9.23;;;1.50;99.90;;;;;;5034618;28;20240;-63
2023/03/28 03:19:31;;;;;;;17.60;9.73;;;1.40;99.90;;;;;;5036820;28;20226;-63
2023/03/28 03:22:20;;;;;;;20.83;10.20;;;1.50;99.90;;;;;;5041419;28;20312;-65
2023/03/28 03:25:12;;;;;;;19.03;10.40;;;1.50;99.90;;;;;;5037320;28;20597;-64
2023/03/28 03:28:24;;;;;;;24.20;10.43;;;1.40;99.90;;;;;;5056635;28;20237;-64
2023/03/28 03:31:13;;;;;;;22.87;10.90;;;1.50;99.90;;;;;;5045928;28;20234;-64
2023/03/28 03:34:26;;;;;;;20.57;11.40;;;1.50;99.90;;;;;;5032047;28;20257;-65
2023/03/28 03:37:19;;;;;;;22.23;12.07;;;1.40;99.90;;;;;;5053646;28;20219;-64
2023/03/28 03:40:10;;;;;;;21.77;11.30;;;1.40;99.90;;;;;;5042606;28;20236;-64
2023/03/28 03:43:01;;;;;;;20.83;11.77;;;1.50;99.90;;;;;;5059551;28;20681;-65
2023/03/28 03:45:50;;;;;;;20.00;11.20;;;1.70;99.90;;;;;;5045283;28;20591;-64
2023/03/28 03:48:40;;;;;;;21.27;10.30;;;1.60;99.90;;;;;;5071491;28;20306;-64
2023/03/28 03:51:39;;;;;;;17.10;9.47;;;1.50;99.90;;;;;;5072429;28;20263;-63
2023/03/28 03:54:28;;;;;;;16.80;9.07;;;1.40;99.90;;;;;;5056489;28;20724;-64
2023/03/28 03:57:16;;;;;;;19.47;9.97;;;1.20;99.90;;;;;;5027590;28;20223;-63
2023/03/28 04:00:10;;;;;;;18.30;9.10;;;1.20;99.90;;;;;;5048758;28;20221;-64
2023/03/28 04:03:11;;;;;;;16.90;8.80;;;1.20;99.90;;;;;;5040563;28;20235;-63
2023/03/28 04:06:14;;;;;;;18.80;8.37;;;1.40;99.90;;;;;;5050101;28;20263;-63
2023/03/28 04:09:04;;;;;;;18.20;8.60;;;1.30;99.90;;;;;;5039548;28;20222;-64
2023/03/28 04:12:12;;;;;;;16.30;8.90;;;1.60;99.90;;;;;;5051923;28;20591;-63
2023/03/28 04:15:10;;;;;;;14.33;8.67;;;1.60;99.90;;;;;;5036029;28;20229;-65
2023/03/28 04:18:19;;;;;;;17.57;8.53;;;1.60;99.90;;;;;;5054789;28;20222;-64
2023/03/28 04:21:09;;;;;;;17.67;8.67;;;1.70;99.90;;;;;;5045826;28;20236;-63
2023/03/28 04:24:00;;;;;;;17.90;8.50;;;1.60;99.90;;;;;;5042754;28;20912;-64
2023/03/28 04:27:00;;;;;;;21.90;8.50;;;1.60;99.90;;;;;;5042362;28;20233;-64
2023/03/28 04:29:52;;;;;;;16.17;7.77;;;1.50;99.90;;;;;;5045336;28;20217;-64
2023/03/28 04:33:00;;;;;;;20.30;8.20;;;1.50;99.90;;;;;;5060579;28;20240;-64
2023/03/28 04:35:55;;;;;;;16.97;7.43;;;1.50;99.90;;;;;;5038395;28;20223;-65
2023/03/28 04:38:45;;;;;;;15.07;7.90;;;1.50;99.90;;;;;;5044051;28;20704;-62
2023/03/28 04:42:00;;;;;;;15.30;8.20;;;1.50;99.90;;;;;;5056104;28;20225;-63
2023/03/28 04:45:11;;;;;;;21.07;8.70;;;1.40;99.90;;;;;;5051706;28;20339;-63
2023/03/28 04:48:02;;;;;;;14.90;7.80;;;1.40;99.90;;;;;;5040567;28;20222;-63
2023/03/28 04:50:51;;;;;;;17.00;7.80;;;1.30;99.90;;;;;;5032957;28;20222;-63
2023/03/28 04:53:40;;;;;;;15.20;7.47;;;1.40;99.90;;;;;;5036782;28;20228;-63
2023/03/28 04:56:52;;;;;;;14.23;7.53;;;1.40;99.90;;;;;;5056908;28;20483;-63
2023/03/28 04:59:48;;;;;;;17.27;7.93;;;1.40;99.90;;;;;;5044941;28;20222;-62
2023/03/28 05:03:03;;;;;;;15.10;7.77;;;1.50;99.90;;;;;;5047435;28;20242;-62
2023/03/28 05:06:03;;;;;;;13.47;7.60;;;1.70;99.90;;;;;;5043394;28;20532;-63
2023/03/28 05:08:56;;;;;;;16.47;7.60;;;1.70;99.90;;;;;;5068104;28;20223;-63
2023/03/28 05:11:52;;;;;;;15.23;8.03;;;1.80;99.90;;;;;;5038822;28;20942;-65
2023/03/28 05:14:41;;;;;;;19.90;7.77;;;2.00;99.90;;;;;;5040485;28;20228;-65
2023/03/28 05:17:35;;;;;;;15.47;7.27;;;2.00;99.90;;;;;;5045955;28;20217;-63
2023/03/28 05:20:32;;;;;;;18.87;8.27;;;2.10;99.90;;;;;;5046356;28;20238;-63
2023/03/28 05:23:21;;;;;;;16.40;8.00;;;2.40;99.90;;;;;;5040873;28;20221;-63
2023/03/28 05:26:11;;;;;;;18.47;8.37;;;2.40;99.90;;;;;;5026420;28;20230;-60
2023/03/28 05:29:01;;;;;;;14.67;7.70;;;2.40;99.90;;;;;;5063370;28;20236;-63
2023/03/28 05:31:50;;;;;;;16.70;8.07;;;2.50;99.90;;;;;;5049107;28;20230;-62
2023/03/28 05:34:47;;;;;;;21.27;10.20;;;2.60;99.90;;;;;;5034380;28;20302;-63
2023/03/28 05:37:38;;;;;;;15.83;7.80;;;2.60;99.90;;;;;;5033282;28;20695;-61
2023/03/28 05:40:31;;;;;;;17.77;7.93;;;2.70;99.90;;;;;;5031535;28;20247;-61
2023/03/28 05:43:20;;;;;;;17.83;9.00;;;2.80;99.90;;;;;;5048057;28;20231;-67
2023/03/28 05:46:09;;;;;;;16.03;7.63;;;2.70;99.90;;;;;;5040103;28;20546;-61
2023/03/28 05:49:02;;;;;;;20.03;9.20;;;2.70;99.90;;;;;;5046607;28;20231;-63
2023/03/28 05:51:51;;;;;;;18.73;9.17;;;2.70;99.90;;;;;;5042525;28;20234;-62
2023/03/28 05:54:42;;;;;;;23.93;10.40;;;2.80;99.90;;;;;;5057588;28;20227;-63
2023/03/28 05:57:39;;;;;;;18.30;9.23;;;2.80;99.90;;;;;;5053554;28;20726;-63
2023/03/28 06:00:28;;;;;;;22.73;9.97;;;2.80;99.90;;;;;;5038070;28;20309;-62
2023/03/28 06:03:17;;;;;;;20.67;10.80;;;2.90;99.90;;;;;;5035320;28;20305;-62
2023/03/28 06:06:08;;;;;;;19.40;9.90;;;2.90;99.90;;;;;;5032537;28;20252;-64
2023/03/28 06:08:57;;;;;;;20.43;10.37;;;3.00;99.90;;;;;;5036833;28;20477;-62
2023/03/28 06:11:48;;;;;;;20.13;11.33;;;3.20;99.90;;;;;;5042103;28;20231;-62
2023/03/28 06:14:37;;;;;;;23.03;11.93;;;3.00;99.90;;;;;;5055344;28;20568;-63
2023/03/28 06:17:31;;;;;;;29.53;17.00;;;3.00;99.90;;;;;;5030237;28;20231;-62
2023/03/28 06:20:25;;;;;;;24.93;12.90;;;3.20;99.90;;;;;;5053178;28;20227;-62
2023/03/28 06:23:16;;;;;;;20.63;12.57;;;3.30;99.90;;;;;;5039140;28;20303;-63
2023/03/28 06:26:05;;;;;;;27.00;12.90;;;3.30;99.90;;;;;;5039887;28;20267;-65
2023/03/28 06:29:05;;;;;;;24.17;14.87;;;3.20;99.90;;;;;;5039012;28;20230;-64
2023/03/28 06:32:03;;;;;;;23.70;13.17;;;3.10;99.90;;;;;;5036315;28;20227;-64
2023/03/28 06:34:51;;;;;;;25.93;14.30;;;3.10;99.90;;;;;;5036846;28;20239;-63
2023/03/28 06:37:44;;;;;;;26.07;12.67;;;3.10;99.90;;;;;;5032479;28;20713;-64
2023/03/28 06:40:36;;;;;;;24.50;13.27;;;3.00;99.90;;;;;;5037557;28;20239;-63
2023/03/28 06:43:25;;;;;;;23.37;12.57;;;3.10;99.90;;;;;;5032255;28;20696;-62
2023/03/28 06:46:28;;;;;;;22.60;13.27;;;3.10;99.90;;;;;;5043075;28;20224;-62
2023/03/28 06:49:17;;;;;;;22.40;13.83;;;3.10;99.90;;;;;;5056345;28;20225;-64
2023/03/28 06:52:41;;;;;;;22.43;14.03;;;3.20;99.90;;;;;;5048948;28;20223;-62
2023/03/28 06:55:31;;;;;;;25.70;14.43;;;3.20;99.90;;;;;;5027079;28;20778;-63
2023/03/28 06:58:23;;;;;;;25.57;15.23;;;3.30;99.90;;;;;;5022577;28;20224;-65
2023/03/28 07:01:19;;;;;;;26.40;15.90;;;3.40;99.90;;;;;;5023051;28;20239;-65
2023/03/28 07:04:16;;;;;;;31.00;18.53;;;3.50;99.90;;;;;;5027796;28;20601;-64
2023/03/28 07:07:08;;;;;;;31.93;16.07;;;3.40;99.90;;;;;;5042427;28;20220;-63
2023/03/28 07:09:57;;;;;;;28.23;16.07;;;3.50;99.90;;;;;;5048067;28;20935;-64
2023/03/28 07:12:46;;;;;;;26.83;16.73;;;3.60;99.90;;;;;;5032749;28;20331;-62
2023/03/28 07:15:35;;;;;;;25.27;16.33;;;3.50;99.90;;;;;;5044945;28;20219;-62
2023/03/28 07:18:25;;;;;;;26.73;16.73;;;3.60;99.90;;;;;;5050407;28;20786;-64
2023/03/28 07:21:18;;;;;;;27.03;16.37;;;3.50;99.90;;;;;;5048563;28;20944;-67
2023/03/28 07:24:08;;;;;;;30.63;16.07;;;3.50;99.90;;;;;;5050197;28;20231;-66
2023/03/28 07:27:15;;;;;;;24.70;15.63;;;3.50;99.90;;;;;;5045751;28;20239;-68
2023/03/28 07:30:12;;;;;;;22.83;15.03;;;3.60;99.90;;;;;;5036651;28;20233;-65
2023/03/28 07:33:02;;;;;;;24.70;15.03;;;3.50;99.90;;;;;;5049063;28;20244;-67
2023/03/28 07:36:10;;;;;;;22.00;14.17;;;3.50;99.90;;;;;;5033098;28;20261;-65
2023/03/28 07:39:02;;;;;;;23.70;14.40;;;3.50;99.90;;;;;;5036339;28;20228;-69
2023/03/28 07:41:51;;;;;;;22.53;14.50;;;3.40;99.90;;;;;;5036802;28;20362;-69
2023/03/28 07:44:40;;;;;;;27.33;15.23;;;3.50;99.90;;;;;;5032981;28;20232;-66
2023/03/28 07:47:30;;;;;;;22.67;13.80;;;3.60;99.90;;;;;;5041869;28;20234;-68
2023/03/28 07:50:19;;;;;;;21.00;14.07;;;3.60;99.90;;;;;;5035742;28;20242;-66
2023/03/28 07:53:12;;;;;;;23.20;13.90;;;3.70;99.90;;;;;;5056386;28;20820;-65
2023/03/28 07:56:09;;;;;;;19.87;12.37;;;3.90;99.90;;;;;;5053289;28;20232;-65
2023/03/28 07:59:17;;;;;;;22.10;13.07;;;3.80;99.90;;;;;;5027245;28;20244;-67
2023/03/28 08:02:12;;;;;;;25.67;15.97;;;3.90;99.90;;;;;;5033281;28;20310;-65
2023/03/28 08:05:01;;;;;;;23.17;13.47;;;4.00;99.90;;;;;;5047070;28;20738;-62
2023/03/28 08:07:52;;;;;;;24.77;13.03;;;4.00;99.90;;;;;;5039763;28;20224;-62
2023/03/28 08:10:44;;;;;;;20.40;13.10;;;4.10;99.90;;;;;;5039353;28;20231;-62
2023/03/28 08:13:35;;;;;;;22.50;11.77;;;4.30;99.90;;;;;;5053458;28;20343;-66
2023/03/28 08:16:30;;;;;;;17.83;11.63;;;4.60;99.90;;;;;;5036946;28;20367;-63
2023/03/28 08:19:19;;;;;;;16.83;10.43;;;5.00;99.90;;;;;;5029558;28;20282;-64
2023/03/28 08:22:44;;;;;;;17.50;9.63;;;5.30;99.90;;;;;;4995499;28;20333;-65
2023/03/28 08:25:52;;;;;;;16.47;9.33;;;5.30;99.90;;;;;;5054600;28;20234;-61
2023/03/28 08:28:45;;;;;;;14.63;9.27;;;5.10;99.90;;;;;;5043621;28;20228;-63
2023/03/28 08:31:34;;;;;;;12.97;8.70;;;5.40;99.90;;;;;;5028242;28;20224;-62
2023/03/28 08:34:29;;;;;;;15.60;9.03;;;5.40;99.90;;;;;;5057390;28;20707;-62
2023/03/28 08:37:21;;;;;;;13.10;7.60;;;5.30;99.90;;;;;;5042986;28;20232;-62
2023/03/28 08:40:15;;;;;;;16.27;7.20;;;5.50;99.90;;;;;;5043108;28;20231;-63
2023/03/28 08:43:25;;;;;;;13.13;7.23;;;6.30;99.90;;;;;;5049861;28;20722;-63
2023/03/28 08:46:20;;;;;;;13.67;6.77;;;6.50;99.90;;;;;;5041424;28;20224;-64
2023/03/28 08:49:14;;;;;;;9.73;6.40;;;6.50;99.90;;;;;;5028272;28;20228;-63
2023/03/28 08:52:05;;;;;;;10.10;5.73;;;7.00;99.90;;;;;;5034210;28;20221;-64
2023/03/28 08:55:00;;;;;;;8.13;5.50;;;7.30;99.90;;;;;;5032304;28;20291;-64
2023/03/28 08:57:54;;;;;;;7.43;4.97;;;7.30;99.90;;;;;;5036091;28;20304;-63
2023/03/28 09:00:43;;;;;;;6.30;4.87;;;7.70;99.90;;;;;;5025510;28;20229;-64
2023/03/28 09:03:35;;;;;;;6.23;3.57;;;7.10;99.90;;;;;;5032537;28;20237;-63
2023/03/28 09:06:36;;;;;;;6.43;4.33;;;6.90;99.90;;;;;;5050253;28;20345;-62
2023/03/28 09:09:51;;;;;;;6.07;3.87;;;6.70;99.90;;;;;;5051010;28;20237;-65
2023/03/28 09:13:22;;;;;;;7.17;4.03;;;6.70;99.90;;;;;;5035472;28;20233;-64
2023/03/28 09:16:25;;;;;;;6.10;4.20;;;6.80;99.90;;;;;;5033096;28;20277;-64
2023/03/28 09:19:54;;;;;;;4.73;3.80;;;6.60;99.90;;;;;;5031341;28;20230;-65
2023/03/28 09:23:18;;;;;;;4.90;3.53;;;6.30;99.90;;;;;;5039800;28;20284;-65
2023/03/28 09:26:31;;;;;;;5.67;3.77;;;6.10;99.90;;;;;;5036157;28;20983;-66
2023/03/28 09:29:30;;;;;;;7.70;5.20;;;5.60;99.90;;;;;;5047822;28;20229;-67
2023/03/28 09:32:23;;;;;;;8.47;6.90;;;5.00;99.90;;;;;;5034073;28;20241;-66
2023/03/28 09:35:18;;;;;;;11.33;8.03;;;4.20;99.90;;;;;;5061608;28;20225;-64
2023/03/28 09:38:20;;;;;;;9.50;8.07;;;3.80;99.90;;;;;;5036103;28;20220;-66
2023/03/28 09:41:16;;;;;;;10.40;8.50;;;3.60;99.90;;;;;;5034239;28;20227;-64
2023/03/28 09:44:30;;;;;;;11.17;8.70;;;3.40;99.90;;;;;;5037381;28;20224;-65
2023/03/28 09:47:54;;;;;;;13.53;9.50;;;3.40;99.90;;;;;;5038169;28;20231;-64
2023/03/28 09:50:52;;;;;;;15.37;10.17;;;3.80;99.90;;;;;;5047198;28;20247;-65
2023/03/28 09:53:42;;;;;;;14.43;9.63;;;3.80;99.90;;;;;;5042058;28;20236;-65
2023/03/28 09:56:35;;;;;;;15.53;10.77;;;4.00;99.90;;;;;;5053763;28;20789;-66
2023/03/28 09:59:36;;;;;;;14.80;10.23;;;4.30;99.90;;;;;;5032258;28;20306;-66
2023/03/28 10:02:32;;;;;;;14.33;11.37;;;4.20;99.90;;;;;;5020151;28;20283;-64
2023/03/28 10:05:35;;;;;;;15.77;11.43;;;4.20;99.90;;;;;;5035241;28;20259;-63
2023/03/28 10:08:41;;;;;;;15.50;11.30;;;4.30;99.90;;;;;;5037971;28;20890;-64
2023/03/28 10:11:53;;;;;;;15.77;11.63;;;4.40;99.90;;;;;;5021733;28;20232;-65
2023/03/28 10:14:47;;;;;;;17.07;11.57;;;4.30;99.90;;;;;;5037312;28;20238;-64
2023/03/28 10:18:16;;;;;;;17.50;11.80;;;4.60;99.90;;;;;;5022080;28;20240;-64
2023/03/28 10:21:13;;;;;;;16.50;11.80;;;4.40;99.90;;;;;;5038303;28;20317;-65
2023/03/28 10:24:06;;;;;;;16.40;11.13;;;4.30;99.90;;;;;;5054635;28;20713;-65
2023/03/28 10:26:58;;;;;;;17.90;11.60;;;4.20;99.90;;;;;;5045043;28;20631;-65
2023/03/28 10:29:48;;;;;;;15.03;10.43;;;4.60;99.90;;;;;;5036727;28;20220;-63
2023/03/28 10:32:38;;;;;;;12.93;8.50;;;4.80;99.90;;;;;;5017424;28;20225;-66
2023/03/28 10:35:59;;;;;;;12.43;7.70;;;4.60;99.90;;;;;;5059438;28;20311;-64
2023/03/28 10:38:49;;;;;;;9.40;6.60;;;4.70;99.90;;;;;;5044704;28;20213;-64
2023/03/28 10:42:09;;;;;;;7.73;5.23;;;4.50;99.90;;;;;;5040345;28;20228;-65
2023/03/28 10:45:34;;;;;;;7.80;4.70;;;4.40;99.90;;;;;;5051688;28;20242;-64
2023/03/28 10:48:29;;;;;;;5.83;4.37;;;4.20;99.90;;;;;;5024479;28;20651;-65
2023/03/28 10:51:25;;;;;;;5.80;3.90;;;3.80;99.90;;;;;;5030477;28;20227;-64
2023/03/28 10:54:51;;;;;;;5.13;3.63;;;3.90;99.90;;;;;;5049012;28;20319;-64
2023/03/28 10:58:02;;;;;;;6.17;4.07;;;3.80;99.90;;;;;;5035184;28;20223;-63
2023/03/28 11:01:02;;;;;;;6.97;3.70;;;3.90;99.90;;;;;;5033947;28;20674;-65
2023/03/28 11:04:14;;;;;;;5.23;3.90;;;4.00;99.90;;;;;;5037447;28;20229;-64
2023/03/28 11:07:09;;;;;;;6.83;4.17;;;4.00;99.90;;;;;;5042294;28;20228;-66
2023/03/28 11:10:26;;;;;;;183.53;119.00;;;4.10;99.90;;;;;;5042675;28;20702;-66
2023/03/28 11:13:30;;;;;;;7.10;4.93;;;4.40;99.90;;;;;;5020940;28;20240;-65
2023/03/28 11:16:27;;;;;;;9.43;6.73;;;4.40;99.90;;;;;;5046617;28;20239;-66
2023/03/28 11:20:20;;;;;;;7.17;4.50;;;4.60;99.90;;;;;;5040576;28;20224;-65
2023/03/28 11:23:36;;;;;;;5.87;3.30;;;4.60;99.90;;;;;;5037388;28;20753;-66
2023/03/28 11:27:12;;;;;;;4.63;3.60;;;4.50;99.90;;;;;;4982375;28;20230;-64
2023/03/28 11:30:15;;;;;;;5.20;3.10;;;4.60;99.90;;;;;;4997247;28;20234;-66
2023/03/28 11:33:17;;;;;;;4.77;2.70;;;4.50;99.90;;;;;;5041603;28;20223;-65
2023/03/28 11:36:14;;;;;;;5.30;3.20;;;4.10;99.90;;;;;;5041023;28;20688;-63
2023/03/28 11:39:11;;;;;;;4.63;2.40;;;4.20;99.90;;;;;;5045233;28;20281;-64
2023/03/28 11:42:05;;;;;;;5.47;2.67;;;4.00;99.90;;;;;;5026052;28;20225;-65
2023/03/28 11:45:08;;;;;;;5.57;2.70;;;4.00;99.90;;;;;;5042434;28;20220;-64
2023/03/28 11:48:08;;;;;;;7.20;2.57;;;4.00;99.90;;;;;;5033209;28;20261;-64
2023/03/28 11:51:05;;;;;;;3.53;2.47;;;4.10;99.90;;;;;;5030658;28;22335;-63
2023/03/28 11:54:11;;;;;;;8.40;3.60;;;4.50;99.90;;;;;;5054794;28;20401;-64
2023/03/28 11:57:06;;;;;;;4.33;2.53;;;4.50;99.90;;;;;;5049602;28;20231;-64
2023/03/28 12:00:10;;;;;;;5.43;2.43;;;4.50;99.90;;;;;;5060550;28;20303;-65
2023/03/28 12:03:28;;;;;;;3.77;2.50;;;4.50;99.90;;;;;;5031056;28;20269;-64
2023/03/28 12:06:26;;;;;;;4.27;2.20;;;4.70;99.90;;;;;;5074299;28;20544;-65
2023/03/28 12:09:24;;;;;;;4.03;2.10;;;4.70;99.90;;;;;;5039568;28;20251;-64
2023/03/28 12:12:18;;;;;;;5.30;2.50;;;4.60;99.90;;;;;;5032351;28;20216;-65
2023/03/28 12:15:15;;;;;;;3.20;2.33;;;4.80;99.90;;;;;;5057517;28;20224;-64
2023/03/28 12:18:15;;;;;;;3.57;2.00;;;5.00;99.90;;;;;;5037819;28;20235;-63
2023/03/28 12:21:12;;;;;;;3.70;1.80;;;5.40;99.90;;;;;;5031755;28;20732;-63
2023/03/28 12:24:13;;;;;;;3.40;1.97;;;5.40;99.90;;;;;;5057276;28;20228;-64
2023/03/28 12:27:21;;;;;;;3.97;2.00;;;5.30;99.90;;;;;;5041456;28;20227;-64
2023/03/28 12:30:20;;;;;;;5.20;2.20;;;4.90;99.90;;;;;;5051069;28;20358;-64
2023/03/28 12:33:19;;;;;;;4.93;2.20;;;5.10;99.90;;;;;;5028363;28;20221;-66
2023/03/28 12:36:40;;;;;;;6.40;2.30;;;5.10;99.90;;;;;;5045900;28;20241;-66
2023/03/28 12:39:37;;;;;;;4.63;2.87;;;5.00;99.90;;;;;;5038970;28;20233;-64
2023/03/28 12:42:36;;;;;;;4.83;2.03;;;5.00;99.90;;;;;;5073565;28;20232;-63
2023/03/28 12:45:30;;;;;;;2.53;1.90;;;5.30;99.90;;;;;;5027343;28;20239;-63
2023/03/28 12:48:29;;;;;;;3.67;2.30;;;5.40;99.90;;;;;;5047751;28;20221;-64
2023/03/28 12:51:24;;;;;;;5.90;2.23;;;5.30;99.90;;;;;;5039531;28;20310;-62
2023/03/28 12:54:26;;;;;;;5.33;2.10;;;5.60;99.90;;;;;;5058545;28;20247;-61
2023/03/28 12:57:42;;;;;;;5.10;1.90;;;5.80;99.90;;;;;;5038959;28;20229;-62
2023/03/28 13:01:43;;;;;;;4.23;1.90;;;5.60;99.90;;;;;;5053366;28;20237;-62
2023/03/28 13:04:52;;;;;;;5.93;1.73;;;5.70;99.90;;;;;;5041390;28;20217;-62
2023/03/28 13:07:58;;;;;;;3.57;2.00;;;5.70;99.90;;;;;;5035729;28;20835;-61
2023/03/28 13:11:05;;;;;;;3.30;1.87;;;5.60;99.90;;;;;;5041602;28;20225;-64
2023/03/28 13:14:02;;;;;;;4.27;2.33;;;5.80;99.90;;;;;;5036113;28;20229;-63
2023/03/28 13:16:57;;;;;;;3.20;2.00;;;5.70;99.90;;;;;;5048739;28;20599;-63
2023/03/28 13:19:51;;;;;;;4.37;2.20;;;5.90;99.90;;;;;;5054472;28;20220;-63
2023/03/28 13:22:48;;;;;;;4.57;2.00;;;5.70;99.90;;;;;;5067774;28;20636;-66
2023/03/28 13:25:38;;;;;;;4.40;2.00;;;5.30;99.90;;;;;;5056276;28;20846;-68
2023/03/28 13:28:43;;;;;;;5.60;2.00;;;5.30;99.90;;;;;;5043738;28;20938;-65
2023/03/28 13:31:32;;;;;;;4.77;2.33;;;5.30;99.90;;;;;;5038892;28;20220;-65
2023/03/28 13:34:27;;;;;;;4.63;2.07;;;5.40;99.90;;;;;;5051911;28;20277;-62
2023/03/28 13:37:22;;;;;;;3.03;2.00;;;5.40;99.90;;;;;;5039164;28;20248;-61
2023/03/28 13:40:53;;;;;;;2.90;2.10;;;5.40;99.90;;;;;;5038140;28;20270;-68
2023/03/28 13:43:47;;;;;;;3.27;2.17;;;5.10;99.90;;;;;;5054862;28;20683;-69
2023/03/28 13:46:43;;;;;;;4.33;2.00;;;5.20;99.90;;;;;;5043958;28;20335;-70
2023/03/28 13:49:41;;;;;;;5.53;1.83;;;5.30;99.90;;;;;;5054133;28;20262;-71
2023/03/28 13:52:31;;;;;;;2.13;1.70;;;5.30;99.90;;;;;;5065981;28;20232;-68
2023/03/28 13:55:21;;;;;;;3.80;1.80;;;5.10;99.90;;;;;;5021318;28;20229;-68
2023/03/28 13:58:16;;;;;;;5.23;2.00;;;5.00;99.90;;;;;;5022538;28;20220;-68
2023/03/28 14:01:14;;;;;;;5.63;2.07;;;5.10;99.90;;;;;;5041711;28;20717;-67
2023/03/28 14:04:10;;;;;;;3.63;2.10;;;5.10;99.90;;;;;;5055161;28;20718;-69
2023/03/28 14:06:59;;;;;;;4.30;1.70;;;4.90;99.90;;;;;;5043090;28;20255;-67
2023/03/28 14:09:49;;;;;;;4.00;1.90;;;4.80;99.90;;;;;;5056730;28;20228;-68
2023/03/28 14:12:38;;;;;;;4.97;1.90;;;4.80;99.90;;;;;;5049390;28;20305;-68
2023/03/28 14:15:29;;;;;;;3.70;1.50;;;4.70;99.90;;;;;;5053770;28;20762;-68
2023/03/28 14:18:30;;;;;;;6.67;1.87;;;4.90;99.90;;;;;;5052558;28;20224;-70
2023/03/28 14:21:23;;;;;;;1.97;1.50;;;4.80;99.90;;;;;;5059005;28;20255;-70
2023/03/28 14:24:19;;;;;;;2.10;1.53;;;5.00;99.90;;;;;;5051682;28;20236;-65
2023/03/28 14:27:13;;;;;;;4.13;1.67;;;5.00;99.90;;;;;;5057129;28;20228;-64
2023/03/28 14:30:04;;;;;;;3.90;2.00;;;5.10;99.90;;;;;;5066915;28;20240;-65
2023/03/28 14:32:57;;;;;;;3.40;2.20;;;4.80;99.90;;;;;;5039687;28;20245;-64
2023/03/28 14:35:58;;;;;;;4.57;1.87;;;4.80;99.90;;;;;;5054824;28;20217;-64
2023/03/28 14:38:47;;;;;;;3.67;2.53;;;4.70;99.90;;;;;;5050589;28;20781;-63
2023/03/28 14:41:36;;;;;;;4.13;2.20;;;4.70;99.90;;;;;;5044377;28;20227;-64
2023/03/28 14:44:26;;;;;;;3.93;2.07;;;4.60;99.90;;;;;;5028103;28;20264;-66
2023/03/28 14:47:17;;;;;;;3.93;1.80;;;4.70;99.90;;;;;;5064723;28;20346;-63
2023/03/28 14:50:07;;;;;;;4.03;1.70;;;4.80;99.90;;;;;;5054406;28;20301;-63
2023/03/28 14:53:04;;;;;;;3.97;1.80;;;4.50;99.90;;;;;;5031961;28;20232;-67
2023/03/28 14:55:55;;;;;;;3.27;1.70;;;4.60;99.90;;;;;;5053507;28;20293;-66
2023/03/28 14:58:50;;;;;;;4.00;2.03;;;4.60;99.90;;;;;;5033098;28;20324;-65
2023/03/28 15:01:39;;;;;;;4.63;1.97;;;4.30;99.90;;;;;;5047968;28;20247;-66
2023/03/28 15:04:29;;;;;;;4.37;2.63;;;4.30;99.90;;;;;;5046599;28;20227;-67
2023/03/28 15:07:25;;;;;;;10.97;2.73;;;4.50;99.90;;;;;;5048672;28;20251;-65
2023/03/28 15:10:24;;;;;;;6.00;2.43;;;4.40;99.90;;;;;;5052338;28;20557;-64
2023/03/28 15:13:17;;;;;;;3.97;2.23;;;4.40;99.90;;;;;;5051784;28;20224;-67
2023/03/28 15:16:15;;;;;;;4.17;2.33;;;4.30;99.90;;;;;;5054137;28;20796;-65
2023/03/28 15:19:07;;;;;;;4.50;2.10;;;4.20;99.90;;;;;;5049864;28;20224;-64
2023/03/28 15:22:01;;;;;;;2.93;1.77;;;4.00;99.90;;;;;;5056453;28;20326;-67
2023/03/28 15:24:50;;;;;;;6.00;1.90;;;3.90;99.90;;;;;;5052883;28;20228;-66
2023/03/28 15:27:41;;;;;;;2.60;1.40;;;4.00;99.90;;;;;;5050960;28;20216;-63